Flight Track Log - Related Links

Times and Time Zones

All times are in EDT time to prevent confusion due to time zone crossing. See the LPE2605 flight status page for this flight to view local times or setup timezone preferences in your user account.

Time Position Orientation Groundspeed Altitude Reporting Facility
EDT Latitude Longitude Course Direction KTS MPH feet Rate Location/Type
Wed 03:35:22 AM 33.9350 -118.4710 222° Southwest 190 219 2,000  Level FlightAware ADS-B
Wed 03:35:47 AM 33.9190 -118.4900 225° Southwest 224 258 2,500 1,527 Climbing FlightAware ADS-B
Wed 03:36:17 AM 33.8930 -118.5220 226° Southwest 259 298 3,400 2,133 Climbing FlightAware ADS-B
Wed 03:36:32 AM 33.8760 -118.5310 204° Southwest 264 304 4,100 2,600 Climbing FlightAware ADS-B
Wed 03:36:47 AM 33.8590 -118.5370 196° South 272 313 4,700 2,667 Climbing FlightAware ADS-B
Wed 03:37:17 AM 33.8210 -118.5480 194° South 286 329 6,100 3,273 Climbing FlightAware ADS-B
Wed 03:37:42 AM 33.7870 -118.5570 192° South 286 329 7,700 3,171 Climbing FlightAware ADS-B
Wed 03:38:27 AM 33.7300 -118.5390 165° South 298 343 9,800 2,329 Climbing FlightAware ADS-B
Wed 03:39:07 AM 33.6760 -118.5160 160° South 333 383 11,000 1,543 Climbing FlightAware ADS-B
Wed 03:39:37 AM 33.6350 -118.4840 147° Southeast 373 429 11,600 1,457 Climbing FlightAware ADS-B
Wed 03:40:17 AM 33.6040 -118.4040 115° Southeast 408 470 12,700 2,118 Climbing FlightAware ADS-B
Wed 03:41:02 AM 33.5840 -118.3030 103° East 420 483 14,600 2,612 Climbing FlightAware ADS-B
Wed 03:41:42 AM 33.5640 -118.2100 104° East 427 491 16,400 2,612 Climbing FlightAware ADS-B
Wed 03:42:27 AM 33.5430 -118.1090 104° East 432 497 18,300 2,471 Climbing FlightAware ADS-B
Wed 03:43:07 AM 33.5220 -118.0140 105° East 441 507 19,900 2,250 Climbing FlightAware ADS-B
Wed 03:43:47 AM 33.4900 -117.9210 112° Southeast 451 519 21,300 2,025 Climbing FlightAware ADS-B
Wed 03:44:27 AM 33.4520 -117.8330 117° Southeast 460 529 22,600 1,765 Climbing FlightAware ADS-B
Wed 03:45:12 AM 33.4080 -117.7310 117° Southeast 473 544 23,800 1,694 Climbing FlightAware ADS-B
Wed 03:45:52 AM 33.3670 -117.6370 118° Southeast 481 554 25,000 1,835 Climbing FlightAware ADS-B
Wed 03:46:37 AM 33.3200 -117.5290 117° Southeast 488 562 26,400 2,188 Climbing FlightAware ADS-B
Wed 03:47:17 AM 33.2780 -117.4340 118° Southeast 479 551 28,100 2,400 Climbing FlightAware ADS-B
Wed 03:48:02 AM 33.2320 -117.3310 118° Southeast 473 544 29,800 2,118 Climbing FlightAware ADS-B
Wed 03:48:42 AM 33.1930 -117.2410 117° Southeast 469 540 31,100 1,765 Climbing FlightAware ADS-B
Wed 03:49:27 AM 33.1460 -117.1330 117° Southeast 470 541 32,300 1,341 Climbing FlightAware ADS-B
Wed 03:50:07 AM 33.1060 -117.0430 118° Southeast 468 539 33,000 525 Climbing FlightAware ADS-B
Wed 03:50:47 AM 33.0660 -116.9520 118° Southeast 466 536 33,000  Level FlightAware ADS-B
Wed 03:51:32 AM 33.0220 -116.8530 118° Southeast 465 535 33,000  Level FlightAware ADS-B
Wed 03:52:42 AM 32.9860 -116.7710 118° Southeast 464 534 33,000  Level FlightAware ADS-B
Wed 03:53:17 AM 32.9570 -116.7070 118° Southeast 463 533 33,000  Level FlightAware ADS-B
Wed 03:54:02 AM 32.9060 -116.5920 118° Southeast 462 532 33,000  Level FlightAware ADS-B
Wed 03:54:37 AM 32.8620 -116.4940 118° Southeast 459 528 33,000  Level FlightAware ADS-B
Wed 03:55:37 AM 32.8120 -116.3790 117° Southeast 459 528 33,000  Level FlightAware ADS-B
Wed 03:56:27 AM 32.7710 -116.2830 117° Southeast 459 528 33,000  Level FlightAware ADS-B
Wed 03:57:07 AM 32.7380 -116.2070 117° Southeast 459 528 33,000  Level FlightAware ADS-B
Wed 03:57:47 AM 32.7050 -116.1300 117° Southeast 459 528 33,000  Level FlightAware ADS-B
Wed 03:58:27 AM 32.6720 -116.0540 117° Southeast 459 528 33,000  Level FlightAware ADS-B
Wed 03:59:07 AM 32.6390 -115.9770 117° Southeast 459 528 33,000  Level FlightAware ADS-B
Wed 03:59:47 AM 32.6070 -115.9010 117° Southeast 459 528 33,000  Level FlightAware ADS-B
Wed 04:00:37 AM 32.5660 -115.8060 117° Southeast 459 528 33,000  Level FlightAware ADS-B
Wed 04:01:17 AM 32.5330 -115.7290 117° Southeast 459 528 33,000  Level FlightAware ADS-B
Wed 04:01:57 AM 32.5000 -115.6530 117° Southeast 459 528 33,000  Level FlightAware ADS-B
Wed 04:02:37 AM 32.4670 -115.5770 117° Southeast 459 528 33,000  Level FlightAware ADS-B
Wed 04:03:27 AM 32.4260 -115.4810 117° Southeast 459 528 33,000  Level FlightAware ADS-B
Wed 04:04:07 AM 32.3940 -115.4050 116° Southeast 459 528 33,000  Level FlightAware ADS-B
Wed 04:04:47 AM 32.3610 -115.3290 117° Southeast 459 528 33,000  Level FlightAware ADS-B
Wed 04:09:00 AM 32.0692 -114.7830 122° Southeast  Level FlightAware Approximate
Wed 04:10:00 AM 31.9996 -114.6541 122° Southeast  Level FlightAware Approximate
Wed 04:11:00 AM 31.9299 -114.5253 122° Southeast  Level FlightAware Approximate
Wed 04:12:00 AM 31.8601 -114.3967 123° Southeast  Level FlightAware Approximate
Wed 04:13:00 AM 31.7902 -114.2683 123° Southeast  Level FlightAware Approximate
Wed 04:14:00 AM 31.7201 -114.1401 123° Southeast  Level FlightAware Approximate
Wed 04:14:22 AM 31.6340 -113.8500 123° Southeast 453 521 33,000  Level FlightAware ADS-B
Wed 04:15:02 AM 31.5940 -113.7670 119° Southeast 454 522 33,000  Level FlightAware ADS-B
Wed 04:16:22 AM 31.5420 -113.6610 120° Southeast 454 522 33,000  Level FlightAware ADS-B
Wed 04:17:07 AM 31.5020 -113.5750 119° Southeast 454 522 33,000  Level FlightAware ADS-B
Wed 04:18:02 AM 31.4450 -113.4590 120° Southeast 453 521 33,000  Level FlightAware ADS-B
Wed 04:18:47 AM 31.3940 -113.3570 120° Southeast 451 519 33,000  Level FlightAware ADS-B
Wed 04:19:22 AM 31.3090 -113.2170 125° Southeast 447 514 33,000  Level FlightAware ADS-B
Wed 04:20:12 AM 31.2440 -113.1250 130° Southeast 451 519 33,000  Level FlightAware ADS-B
Wed 04:20:52 AM 31.1870 -113.0450 130° Southeast 445 512 33,000  Level FlightAware ADS-B
Wed 04:22:17 AM 31.0790 -112.8920 129° Southeast 444 511 33,000  Level FlightAware ADS-B
Wed 04:23:27 AM 30.9860 -112.7610 130° Southeast 444 511 33,000  Level FlightAware ADS-B
Wed 04:24:47 AM 30.8850 -112.6190 130° Southeast 449 517 33,000  Level FlightAware ADS-B
Wed 04:25:32 AM 30.8180 -112.5250 130° Southeast 450 518 33,000  Level FlightAware ADS-B
Wed 04:26:27 AM 30.7490 -112.4290 130° Southeast 450 518 33,000  Level FlightAware ADS-B
Wed 04:27:12 AM 30.6840 -112.3390 130° Southeast 450 518 33,000  Level FlightAware ADS-B
Wed 04:28:07 AM 30.6100 -112.2360 130° Southeast 450 518 33,000  Level FlightAware ADS-B
Wed 04:28:52 AM 30.5530 -112.1570 130° Southeast 451 519 33,000  Level FlightAware ADS-B
Wed 04:29:32 AM 30.4960 -112.0780 130° Southeast 451 519 33,000  Level FlightAware ADS-B
Wed 04:30:17 AM 30.4360 -111.9950 130° Southeast 452 520 33,000  Level FlightAware ADS-B
Wed 04:30:57 AM 30.3820 -111.9210 130° Southeast 452 520 33,000  Level FlightAware ADS-B
Wed 04:31:37 AM 30.3280 -111.8470 130° Southeast 451 519 33,000  Level FlightAware ADS-B
Wed 04:32:22 AM 30.2680 -111.7640 130° Southeast 452 520 33,000  Level FlightAware ADS-B
Wed 04:32:57 AM 30.2200 -111.6990 131° Southeast 452 520 33,000  Level FlightAware ADS-B
Wed 04:33:47 AM 30.1520 -111.6060 130° Southeast 452 520 33,000  Level FlightAware ADS-B
Wed 04:34:27 AM 30.0990 -111.5330 130° Southeast 454 522 33,000  Level FlightAware ADS-B
Wed 04:35:07 AM 30.0450 -111.4590 130° Southeast 454 522 33,000  Level FlightAware ADS-B
Wed 04:35:47 AM 29.9900 -111.3850 131° Southeast 455 524 33,000  Level FlightAware ADS-B
Wed 04:36:32 AM 29.9270 -111.2990 130° Southeast 457 526 33,000  Level FlightAware ADS-B
Wed 04:37:17 AM 29.8680 -111.2190 130° Southeast 460 529 33,000  Level FlightAware ADS-B
Wed 04:37:57 AM 29.8120 -111.1430 130° Southeast 463 533 33,000  Level FlightAware ADS-B
Wed 04:38:37 AM 29.7560 -111.0680 131° Southeast 466 536 33,000  Level FlightAware ADS-B
Wed 04:39:22 AM 29.6910 -110.9800 130° Southeast 467 537 33,000  Level FlightAware ADS-B
Wed 04:40:02 AM 29.6350 -110.9050 131° Southeast 470 541 33,000  Level FlightAware ADS-B
Wed 04:40:42 AM 29.5790 -110.8300 131° Southeast 473 544 33,000  Level FlightAware ADS-B
Wed 04:41:27 AM 29.5160 -110.7460 131° Southeast 476 548 33,000  Level FlightAware ADS-B
Wed 04:42:07 AM 29.4580 -110.6690 131° Southeast 479 551 33,000  Level FlightAware ADS-B
Wed 04:42:52 AM 29.3910 -110.5790 130° Southeast 482 555 33,000  Level FlightAware ADS-B
Wed 04:43:32 AM 29.3330 -110.5020 131° Southeast 484 557 33,000  Level FlightAware ADS-B
Wed 04:44:12 AM 29.2740 -110.4240 131° Southeast 485 558 33,000  Level FlightAware ADS-B
Wed 04:44:57 AM 29.2090 -110.3380 131° Southeast 486 559 33,000  Level FlightAware ADS-B
Wed 04:45:32 AM 29.1620 -110.2740 130° Southeast 486 559 33,000  Level FlightAware ADS-B
Wed 04:46:22 AM 29.1000 -110.1900 130° Southeast 486 559 33,000  Level FlightAware ADS-B
Wed 04:47:02 AM 29.0510 -110.1230 130° Southeast 486 559 33,000  Level FlightAware ADS-B
Wed 04:47:42 AM 29.0020 -110.0560 130° Southeast 486 559 33,000  Level FlightAware ADS-B
Wed 04:48:22 AM 28.9530 -109.9890 130° Southeast 486 559 33,000  Level FlightAware ADS-B
Wed 04:49:02 AM 28.9040 -109.9220 130° Southeast 486 559 33,000  Level FlightAware ADS-B
Wed 04:49:42 AM 28.8550 -109.8550 130° Southeast 486 559 33,000  Level FlightAware ADS-B
Wed 04:50:32 AM 28.7930 -109.7720 130° Southeast 486 559 33,000  Level FlightAware ADS-B
Wed 04:51:12 AM 28.7440 -109.7050 130° Southeast 486 559 33,000  Level FlightAware ADS-B
Wed 04:51:52 AM 28.6950 -109.6380 130° Southeast 486 559 33,000  Level FlightAware ADS-B
Wed 04:52:32 AM 28.6460 -109.5720 130° Southeast 486 559 33,000  Level FlightAware ADS-B
Wed 04:53:22 AM 28.5840 -109.4880 130° Southeast 486 559 33,000  Level FlightAware ADS-B
Wed 04:54:02 AM 28.5350 -109.4220 130° Southeast 486 559 33,000  Level FlightAware ADS-B
Wed 04:54:42 AM 28.4860 -109.3550 130° Southeast 486 559 33,000  Level FlightAware ADS-B
Wed 04:57:00 AM 28.2369 -109.1690 147° Southeast  Level FlightAware Approximate
Wed 04:58:00 AM 28.1407 -109.0706 132° Southeast  Level Estimated
Wed 04:59:00 AM 28.0521 -108.9634 133° Southeast  Level FlightAware Approximate
Wed 05:00:00 AM 27.9634 -108.8563 133° Southeast  Level FlightAware Approximate
Wed 05:01:00 AM 27.8669 -108.7585 131° Southeast  Level Estimated
Wed 05:02:00 AM 27.7826 -108.6472 131° Southeast  Level FlightAware Approximate
Wed 05:03:00 AM 27.6982 -108.5361 131° Southeast  Level FlightAware Approximate
Wed 05:04:00 AM 27.6137 -108.4252 131° Southeast  Level FlightAware Approximate
Wed 05:05:00 AM 27.5291 -108.3145 131° Southeast  Level FlightAware Approximate
Wed 05:06:00 AM 27.4445 -108.2039 131° Southeast  Level FlightAware Approximate
Wed 05:07:00 AM 27.3597 -108.0935 131° Southeast  Level FlightAware Approximate
Wed 05:07:37 AM 27.1550 -107.7060 131° Southeast 503 579 33,000  Level FlightAware ADS-B
Wed 05:08:12 AM 27.1020 -107.6400 132° Southeast 503 579 33,000  Level FlightAware ADS-B
Wed 05:08:57 AM 27.0300 -107.5500 132° Southeast 504 580 33,000  Level FlightAware ADS-B
Wed 05:09:42 AM 26.9610 -107.4650 132° Southeast 504 580 33,000  Level FlightAware ADS-B
Wed 05:10:17 AM 26.9090 -107.4010 132° Southeast 504 580 33,000  Level FlightAware ADS-B
Wed 05:11:02 AM 26.8350 -107.3100 132° Southeast 504 580 33,000  Level FlightAware ADS-B
Wed 05:11:47 AM 26.7620 -107.2200 132° Southeast 504 580 33,000  Level FlightAware ADS-B
Wed 05:12:27 AM 26.7000 -107.1440 132° Southeast 503 579 33,000  Level FlightAware ADS-B
Wed 05:13:12 AM 26.6310 -107.0600 133° Southeast 503 579 33,000  Level FlightAware ADS-B
Wed 05:13:47 AM 26.5760 -106.9920 132° Southeast 502 578 33,000  Level FlightAware ADS-B
Wed 05:14:37 AM 26.4960 -106.8940 132° Southeast 502 578 33,000  Level FlightAware ADS-B
Wed 05:15:07 AM 26.4520 -106.8410 133° Southeast 502 578 33,000  Level FlightAware ADS-B
Wed 05:15:57 AM 26.3710 -106.7420 132° Southeast 503 579 33,000 133 Level FlightAware ADS-B
Wed 05:16:37 AM 26.3070 -106.6650 133° Southeast 506 582 33,200 560 Climbing FlightAware ADS-B
Wed 05:17:12 AM 26.2560 -106.6020 132° Southeast 509 586 33,700 918 Climbing FlightAware ADS-B
Wed 05:18:02 AM 26.1760 -106.5070 133° Southeast 516 594 34,500 867 Climbing FlightAware ADS-B
Wed 05:18:42 AM 26.1080 -106.4240 132° Southeast 525 604 35,000 353 Climbing FlightAware ADS-B
Wed 05:19:27 AM 26.0310 -106.3320 133° Southeast 535 616 35,000  Level FlightAware ADS-B
Wed 05:20:12 AM 25.9580 -106.2430 132° Southeast 533 613 35,000  Level FlightAware ADS-B
Wed 05:20:52 AM 25.8910 -106.1620 133° Southeast 530 610 35,000  Level FlightAware ADS-B
Wed 05:21:32 AM 25.8240 -106.0820 133° Southeast 528 608 35,000  Level FlightAware ADS-B
Wed 05:22:17 AM 25.7480 -105.9910 133° Southeast 527 606 35,000  Level FlightAware ADS-B
Wed 05:22:57 AM 25.6820 -105.9120 133° Southeast 526 605 35,000  Level FlightAware ADS-B
Wed 05:23:42 AM 25.6080 -105.8250 133° Southeast 527 606 35,000  Level FlightAware ADS-B
Wed 05:24:22 AM 25.5410 -105.7450 133° Southeast 529 609 35,000  Level FlightAware ADS-B
Wed 05:25:02 AM 25.4740 -105.6660 133° Southeast 531 611 35,000  Level FlightAware ADS-B
Wed 05:25:47 AM 25.3970 -105.5740 133° Southeast 534 615 35,000  Level FlightAware ADS-B
Wed 05:26:27 AM 25.3290 -105.4940 133° Southeast 537 618 35,000  Level FlightAware ADS-B
Wed 05:27:07 AM 25.2620 -105.4150 133° Southeast 538 619 35,000  Level FlightAware ADS-B
Wed 05:27:52 AM 25.1870 -105.3250 133° Southeast 540 621 35,000  Level FlightAware ADS-B
Wed 05:28:32 AM 25.1180 -105.2440 133° Southeast 541 623 35,000  Level FlightAware ADS-B
Wed 05:29:17 AM 25.0390 -105.1520 133° Southeast 541 623 35,000  Level FlightAware ADS-B
Wed 05:29:57 AM 24.9710 -105.0730 134° Southeast 541 623 35,000  Level FlightAware ADS-B
Wed 05:30:37 AM 24.9020 -104.9920 133° Southeast 541 623 35,000  Level FlightAware ADS-B
Wed 05:31:22 AM 24.8260 -104.9020 133° Southeast 542 624 35,000  Level FlightAware ADS-B
Wed 05:32:02 AM 24.7560 -104.8210 134° Southeast 541 623 35,000  Level FlightAware ADS-B
Wed 05:32:47 AM 24.6810 -104.7340 133° Southeast 541 623 35,000  Level FlightAware ADS-B
Wed 05:33:27 AM 24.6090 -104.6510 134° Southeast 539 620 35,000  Level FlightAware ADS-B
Wed 05:34:07 AM 24.5420 -104.5720 133° Southeast 537 618 35,000  Level FlightAware ADS-B
Wed 05:34:47 AM 24.4810 -104.5010 133° Southeast 537 618 35,000  Level FlightAware ADS-B
Wed 05:35:27 AM 24.4240 -104.4330 133° Southeast 537 618 35,000  Level FlightAware ADS-B
Wed 05:36:17 AM 24.3520 -104.3490 133° Southeast 537 618 35,000  Level FlightAware ADS-B
Wed 05:36:37 AM 24.3230 -104.3150 133° Southeast 537 618 35,000  Level FlightAware ADS-B
Wed 05:37:27 AM 24.2510 -104.2300 133° Southeast 537 618 35,000  Level FlightAware ADS-B
Wed 05:38:07 AM 24.1930 -104.1620 133° Southeast 537 618 35,000  Level FlightAware ADS-B
Wed 05:38:47 AM 24.1360 -104.0950 133° Southeast 537 618 35,000  Level FlightAware ADS-B
Wed 05:39:27 AM 24.0780 -104.0270 133° Southeast 537 618 35,000  Level FlightAware ADS-B
Wed 05:40:07 AM 24.0200 -103.9590 133° Southeast 537 618 35,000  Level FlightAware ADS-B
Wed 05:40:57 AM 23.9480 -103.8750 133° Southeast 537 618 35,000  Level FlightAware ADS-B
Wed 05:41:37 AM 23.8910 -103.8070 133° Southeast 537 618 35,000  Level FlightAware ADS-B
Wed 05:42:17 AM 23.8330 -103.7400 133° Southeast 537 618 35,000  Level FlightAware ADS-B
Wed 05:42:57 AM 23.7760 -103.6720 132° Southeast 537 618 35,000  Level FlightAware ADS-B
Wed 05:43:47 AM 23.7040 -103.5880 133° Southeast 537 618 35,000  Level FlightAware ADS-B
Wed 05:44:17 AM 23.6600 -103.5370 133° Southeast 537 618 35,000  Level FlightAware ADS-B
Wed 05:47:00 AM 23.4075 -103.2695 136° Southeast  Level FlightAware Approximate
Wed 05:47:02 AM 23.2160 -103.0610 136° Southeast 537 618 35,000  Level FlightAware ADS-B
Wed 05:47:42 AM 23.1490 -102.9860 134° Southeast 538 619 35,000  Level FlightAware ADS-B
Wed 05:48:27 AM 23.0690 -102.8960 134° Southeast 538 619 35,000  Level FlightAware ADS-B
Wed 05:49:07 AM 22.9990 -102.8170 134° Southeast 538 619 35,000  Level FlightAware ADS-B
Wed 05:49:57 AM 22.9180 -102.7270 134° Southeast 532 612 35,000  Level FlightAware ADS-B
Wed 05:50:37 AM 22.8540 -102.6560 134° Southeast 528 608 35,000  Level FlightAware ADS-B
Wed 05:51:37 AM 22.7550 -102.5430 134° Southeast 525 604 35,000  Level FlightAware ADS-B
Wed 05:52:17 AM 22.6990 -102.4770 133° Southeast 525 604 35,000  Level FlightAware ADS-B
Wed 05:53:02 AM 22.6030 -102.3740 135° Southeast 518 596 35,000  Level FlightAware ADS-B
Wed 05:54:02 AM 22.5040 -102.2620 134° Southeast 517 595 35,000  Level FlightAware ADS-B
Wed 05:54:42 AM 22.4360 -102.1860 134° Southeast 517 595 35,000  Level FlightAware ADS-B
Wed 05:55:22 AM 22.3750 -102.1180 134° Southeast 519 597 35,000  Level FlightAware ADS-B
Wed 05:56:07 AM 22.2930 -102.0260 134° Southeast 521 600 35,000  Level FlightAware ADS-B
Wed 05:56:47 AM 22.2290 -101.9550 134° Southeast 523 602 35,000  Level FlightAware ADS-B
Wed 05:57:32 AM 22.1490 -101.8670 134° Southeast 524 603 35,000  Level FlightAware ADS-B
Wed 05:58:12 AM 22.0810 -101.7920 134° Southeast 526 605 35,000  Level FlightAware ADS-B
Wed 05:58:52 AM 22.0140 -101.7170 134° Southeast 525 604 35,000  Level FlightAware ADS-B
Wed 05:59:37 AM 21.9390 -101.6340 134° Southeast 524 603 35,000  Level FlightAware ADS-B
Wed 06:00:17 AM 21.8720 -101.5600 134° Southeast 523 602 35,000  Level FlightAware ADS-B
Wed 06:00:57 AM 21.8050 -101.4860 134° Southeast 521 600 35,000  Level FlightAware ADS-B
Wed 06:01:42 AM 21.7270 -101.4000 134° Southeast 519 597 35,000  Level FlightAware ADS-B
Wed 06:02:22 AM 21.6620 -101.3280 134° Southeast 519 597 35,000  Level FlightAware ADS-B
Wed 06:03:07 AM 21.5830 -101.2420 135° Southeast 519 597 35,000  Level FlightAware ADS-B
Wed 06:03:47 AM 21.5180 -101.1710 135° Southeast 518 596 35,000  Level FlightAware ADS-B
Wed 06:04:27 AM 21.4490 -101.0950 134° Southeast 518 596 35,000  Level FlightAware ADS-B
Wed 06:05:12 AM 21.3760 -101.0150 134° Southeast 519 597 35,000  Level FlightAware ADS-B
Wed 06:05:52 AM 21.3080 -100.9410 135° Southeast 519 597 35,000  Level FlightAware ADS-B
Wed 06:06:37 AM 21.2310 -100.8580 135° Southeast 518 596 35,000  Level FlightAware ADS-B
Wed 06:07:17 AM 21.1630 -100.7830 134° Southeast 517 595 35,000  Level FlightAware ADS-B
Wed 06:07:57 AM 21.0980 -100.7130 135° Southeast 516 594 35,000  Level FlightAware ADS-B
Wed 06:08:37 AM 21.0320 -100.6410 134° Southeast 516 594 35,000  Level FlightAware ADS-B
Wed 06:09:22 AM 20.9560 -100.5590 135° Southeast 515 593 35,000  Level FlightAware ADS-B
Wed 06:10:02 AM 20.8880 -100.4850 135° Southeast 515 593 35,000  Level FlightAware ADS-B
Wed 06:10:47 AM 20.8120 -100.4030 135° Southeast 515 593 35,000  Level FlightAware ADS-B
Wed 06:11:22 AM 20.7560 -100.3430 135° Southeast 515 593 35,000  Level FlightAware ADS-B
Wed 06:12:12 AM 20.6700 -100.2500 135° Southeast 514 592 35,000  Level FlightAware ADS-B
Wed 06:12:52 AM 20.6060 -100.1770 133° Southeast 517 595 35,000  Level FlightAware ADS-B
Wed 06:13:27 AM 20.5550 -100.1100 129° Southeast 520 598 35,000  Level FlightAware ADS-B
Wed 06:14:12 AM 20.4850 -100.0160 128° Southeast 521 600 35,000  Level FlightAware ADS-B
Wed 06:14:57 AM 20.4270 -99.9370 128° Southeast 521 600 35,000  Level FlightAware ADS-B
Wed 06:15:42 AM 20.3500 -99.8350 129° Southeast 526 605 35,000  Level FlightAware ADS-B
Wed 06:16:27 AM 20.2810 -99.7420 128° Southeast 527 606 35,000  Level FlightAware ADS-B
Wed 06:17:02 AM 20.2270 -99.6710 129° Southeast 524 603 35,000  Level FlightAware ADS-B
Wed 06:17:42 AM 20.1670 -99.5910 129° Southeast 521 600 35,000  Level FlightAware ADS-B
Wed 06:18:32 AM 20.0920 -99.4920 129° Southeast 520 598 35,000  Level FlightAware ADS-B
Wed 06:19:12 AM 20.0350 -99.4160 129° Southeast 521 600 35,000  Level FlightAware ADS-B
Wed 06:19:57 AM 19.9630 -99.3210 129° Southeast 521 600 35,000  Level FlightAware ADS-B
Wed 06:20:37 AM 19.9050 -99.2440 129° Southeast 522 601 35,000  Level FlightAware ADS-B
Wed 06:21:17 AM 19.8410 -99.1590 129° Southeast 522 601 35,000  Level FlightAware ADS-B
Wed 06:22:02 AM 19.7740 -99.0700 129° Southeast 522 601 35,000  Level FlightAware ADS-B
Wed 06:22:42 AM 19.7130 -98.9960 131° Southeast 523 602 35,000  Level FlightAware ADS-B
Wed 06:23:22 AM 19.6450 -98.9180 133° Southeast 524 603 35,000  Level FlightAware ADS-B
Wed 06:24:07 AM 19.5700 -98.8330 133° Southeast 524 603 35,000  Level FlightAware ADS-B
Wed 06:24:47 AM 19.5050 -98.7590 133° Southeast 525 604 35,000  Level FlightAware ADS-B
Wed 06:25:22 AM 19.4470 -98.6940 133° Southeast 525 604 35,000  Level FlightAware ADS-B
Wed 06:26:07 AM 19.3820 -98.6170 132° Southeast 525 604 35,000  Level FlightAware ADS-B
Wed 06:26:57 AM 19.3130 -98.5360 132° Southeast 525 604 35,000  Level FlightAware ADS-B
Wed 06:27:37 AM 19.2580 -98.4710 132° Southeast 525 604 35,000  Level FlightAware ADS-B
Wed 06:28:17 AM 19.2030 -98.4060 132° Southeast 525 604 35,000  Level FlightAware ADS-B
Wed 06:28:57 AM 19.1470 -98.3410 132° Southeast 525 604 35,000  Level FlightAware ADS-B
Wed 06:29:37 AM 19.0920 -98.2760 132° Southeast 525 604 35,000  Level FlightAware ADS-B
Wed 06:30:27 AM 19.0230 -98.1950 132° Southeast 525 604 35,000  Level FlightAware ADS-B
Wed 06:31:07 AM 18.9680 -98.1300 132° Southeast 525 604 35,000  Level FlightAware ADS-B
Wed 06:31:47 AM 18.9130 -98.0650 132° Southeast 525 604 35,000  Level FlightAware ADS-B
Wed 06:32:27 AM 18.8570 -98.0000 132° Southeast 525 604 35,000  Level FlightAware ADS-B
Wed 06:33:07 AM 18.8020 -97.9350 132° Southeast 525 604 35,000  Level FlightAware ADS-B
Wed 06:33:47 AM 18.7470 -97.8700 132° Southeast 525 604 35,000  Level FlightAware ADS-B
Wed 06:34:27 AM 18.6920 -97.8060 132° Southeast 525 604 35,000  Level FlightAware ADS-B
Wed 06:35:07 AM 18.6360 -97.7410 132° Southeast 525 604 35,000  Level FlightAware ADS-B
Wed 06:37:00 AM 18.4363 -97.5930 145° Southeast  Level Estimated
Wed 06:38:00 AM 18.3303 -97.5146 145° Southeast  Level Estimated
Wed 06:39:00 AM 18.2242 -97.4362 145° Southeast  Level Estimated
Wed 06:40:00 AM 18.1180 -97.3580 145° Southeast  Level Estimated
Wed 06:41:00 AM 18.0119 -97.2798 145° Southeast  Level Estimated
Wed 06:42:00 AM 17.9057 -97.2018 145° Southeast  Level Estimated
Wed 06:43:00 AM 17.7995 -97.1238 145° Southeast  Level Estimated
Wed 06:44:00 AM 17.6932 -97.0459 145° Southeast  Level Estimated
Wed 06:45:00 AM 17.5869 -96.9682 145° Southeast  Level Estimated
Wed 06:46:00 AM 17.4806 -96.8905 145° Southeast  Level Estimated
Wed 06:47:00 AM 17.3743 -96.8129 145° Southeast  Level Estimated
Wed 06:48:00 AM 17.2679 -96.7354 145° Southeast  Level Estimated
Wed 06:49:00 AM 17.1615 -96.6579 145° Southeast  Level Estimated
Wed 06:50:00 AM 17.0551 -96.5806 145° Southeast  Level Estimated
Wed 06:51:00 AM 16.9486 -96.5034 145° Southeast  Level Estimated
Wed 06:52:00 AM 16.8421 -96.4262 145° Southeast  Level Estimated
Wed 06:53:00 AM 16.7356 -96.3492 145° Southeast  Level Estimated
Wed 06:54:00 AM 16.6291 -96.2722 145° Southeast  Level Estimated
Wed 06:55:00 AM 16.5225 -96.1953 145° Southeast  Level Estimated
Wed 06:56:00 AM 16.4159 -96.1185 145° Southeast  Level Estimated
Wed 06:57:00 AM 16.3092 -96.0417 145° Southeast  Level Estimated
Wed 06:58:00 AM 16.2026 -95.9651 145° Southeast  Level Estimated
Wed 06:59:00 AM 16.0959 -95.8885 145° Southeast  Level Estimated
Wed 07:00:00 AM 15.9892 -95.8120 145° Southeast  Level Estimated
Wed 07:01:00 AM 15.8824 -95.7356 145° Southeast  Level Estimated
Wed 07:02:00 AM 15.7757 -95.6593 145° Southeast  Level Estimated
Wed 07:03:00 AM 15.6689 -95.5831 145° Southeast  Level Estimated
Wed 07:04:00 AM 15.5620 -95.5069 146° Southeast  Level Estimated
Wed 07:05:00 AM 15.4552 -95.4308 146° Southeast  Level Estimated
Wed 07:06:00 AM 15.3483 -95.3549 146° Southeast  Level Estimated
Wed 07:07:00 AM 15.2414 -95.2789 146° Southeast  Level Estimated
Wed 07:08:00 AM 15.1345 -95.2031 146° Southeast  Level Estimated
Wed 07:09:00 AM 15.0275 -95.1273 146° Southeast  Level Estimated
Wed 07:10:00 AM 14.9206 -95.0516 146° Southeast  Level Estimated
Wed 07:11:00 AM 14.8136 -94.9760 146° Southeast  Level Estimated
Wed 07:12:00 AM 14.7065 -94.9005 146° Southeast  Level Estimated
Wed 07:13:00 AM 14.5995 -94.8250 146° Southeast  Level Estimated
Wed 07:14:00 AM 14.4924 -94.7496 146° Southeast  Level Estimated
Wed 07:15:00 AM 14.3853 -94.6743 146° Southeast  Level Estimated
Wed 07:16:00 AM 14.2782 -94.5990 146° Southeast  Level Estimated
Wed 07:17:00 AM 14.1710 -94.5239 146° Southeast  Level Estimated
Wed 07:18:00 AM 14.0639 -94.4488 146° Southeast  Level Estimated
Wed 07:19:00 AM 13.9567 -94.3737 146° Southeast  Level Estimated
Wed 07:20:00 AM 13.8495 -94.2987 146° Southeast  Level Estimated
Wed 07:21:00 AM 13.7422 -94.2238 146° Southeast  Level Estimated
Wed 07:22:00 AM 13.6350 -94.1490 146° Southeast  Level Estimated
Wed 07:23:00 AM 13.5277 -94.0742 146° Southeast  Level Estimated
Wed 07:24:00 AM 13.4204 -93.9996 146° Southeast  Level Estimated
Wed 07:25:00 AM 13.3130 -93.9249 146° Southeast  Level Estimated
Wed 07:26:00 AM 13.2057 -93.8504 146° Southeast  Level Estimated
Wed 07:27:00 AM 13.0983 -93.7759 146° Southeast  Level Estimated
Wed 07:28:00 AM 12.9909 -93.7014 146° Southeast  Level Estimated
Wed 07:29:00 AM 12.8835 -93.6271 146° Southeast  Level Estimated
Wed 07:30:00 AM 12.7761 -93.5528 146° Southeast  Level Estimated
Wed 07:31:00 AM 12.6686 -93.4786 146° Southeast  Level Estimated
Wed 07:32:00 AM 12.5612 -93.4044 146° Southeast  Level Estimated
Wed 07:33:00 AM 12.4537 -93.3303 146° Southeast  Level Estimated
Wed 07:34:00 AM 12.3461 -93.2562 146° Southeast  Level Estimated
Wed 07:35:00 AM 12.2386 -93.1822 146° Southeast  Level Estimated
Wed 07:35:37 AM 11.4110 -93.1060 146° Southeast 472 543 35,000  Level FlightAware ADS-B
Wed 07:36:00 AM 12.1310 -93.1083 146° Southeast  Level Estimated
Wed 07:36:12 AM 11.3530 -93.0640 145° Southeast 473 544 35,000  Level FlightAware ADS-B
Wed 07:37:02 AM 11.2780 -93.0080 144° Southeast 473 544 35,000  Level FlightAware ADS-B
Wed 07:37:42 AM 11.2180 -92.9630 144° Southeast 473 544 35,000  Level FlightAware ADS-B
Wed 07:38:22 AM 11.1570 -92.9190 145° Southeast 473 544 35,000  Level FlightAware ADS-B
Wed 07:39:02 AM 11.0970 -92.8740 144° Southeast 473 544 35,000  Level FlightAware ADS-B
Wed 07:39:42 AM 11.0370 -92.8300 144° Southeast 473 544 35,000  Level FlightAware ADS-B
Wed 07:40:32 AM 10.9620 -92.7740 144° Southeast 473 544 35,000  Level FlightAware ADS-B
Wed 07:41:12 AM 10.9020 -92.7300 144° Southeast 473 544 35,000  Level FlightAware ADS-B
Wed 07:41:52 AM 10.8410 -92.6850 144° Southeast 473 544 35,000  Level FlightAware ADS-B
Wed 07:42:37 AM 10.6380 -92.5610 149° Southeast 473 544 35,000  Level FlightAware ADS-B
Wed 07:44:17 AM 10.4720 -92.4450 146° Southeast 470 541 35,000  Level FlightAware ADS-B
Wed 07:44:47 AM 10.4090 -92.4010 146° Southeast 469 540 35,000  Level FlightAware ADS-B
Wed 07:45:42 AM 10.3120 -92.3320 145° Southeast 470 541 35,000  Level FlightAware ADS-B
Wed 07:46:22 AM 10.2400 -92.2820 146° Southeast 471 542 35,000  Level FlightAware ADS-B
Wed 07:46:57 AM 10.1770 -92.2380 145° Southeast 470 541 35,000  Level FlightAware ADS-B
Wed 07:47:42 AM 10.1040 -92.1860 145° Southeast 470 541 35,000  Level FlightAware ADS-B
Wed 07:48:42 AM 9.9900 -92.1070 146° Southeast 467 537 35,000  Level FlightAware ADS-B
Wed 07:49:22 AM 9.9180 -92.0560 145° Southeast 466 536 35,000  Level FlightAware ADS-B
Wed 07:50:07 AM 9.8390 -92.0010 146° Southeast 465 535 35,000  Level FlightAware ADS-B
Wed 07:50:47 AM 9.7680 -91.9520 146° Southeast 458 527 35,000  Level FlightAware ADS-B
Wed 07:51:32 AM 9.6890 -91.8970 146° Southeast 458 527 35,000  Level FlightAware ADS-B
Wed 07:52:07 AM 9.6240 -91.8520 146° Southeast 457 526 35,000  Level FlightAware ADS-B
Wed 07:52:52 AM 9.5540 -91.7770 133° Southeast 460 529 35,000  Level FlightAware ADS-B
Wed 07:53:47 AM 9.4810 -91.6960 132° Southeast 460 529 35,000  Level FlightAware ADS-B
Wed 07:54:32 AM 9.4270 -91.6320 131° Southeast 460 529 35,000  Level FlightAware ADS-B
Wed 07:55:12 AM 9.3790 -91.5770 131° Southeast 460 529 35,000  Level FlightAware ADS-B
Wed 07:55:52 AM 9.3320 -91.5210 130° Southeast 460 529 35,000  Level FlightAware ADS-B
Wed 07:56:32 AM 9.2840 -91.4660 131° Southeast 460 529 35,000  Level FlightAware ADS-B
Wed 07:57:12 AM 9.2370 -91.4110 131° Southeast 460 529 35,000  Level FlightAware ADS-B
Wed 07:58:02 AM 9.1770 -91.3420 131° Southeast 460 529 35,000  Level FlightAware ADS-B
Wed 07:58:42 AM 9.1300 -91.2860 130° Southeast 460 529 35,000  Level FlightAware ADS-B
Wed 07:59:22 AM 9.0830 -91.2310 131° Southeast 460 529 35,000  Level FlightAware ADS-B
Wed 08:00:02 AM 9.0350 -91.1760 131° Southeast 460 529 35,000  Level FlightAware ADS-B
Wed 08:00:42 AM 8.9880 -91.1200 130° Southeast 460 529 35,000  Level FlightAware ADS-B
Wed 08:01:32 AM 8.9280 -91.0510 131° Southeast 460 529 35,000  Level FlightAware ADS-B
Wed 08:02:12 AM 8.8810 -90.9960 131° Southeast 460 529 35,000  Level FlightAware ADS-B
Wed 08:02:52 AM 8.8330 -90.9410 131° Southeast 460 529 35,000  Level FlightAware ADS-B
Wed 08:03:32 AM 8.7860 -90.8850 130° Southeast 460 529 35,000  Level FlightAware ADS-B
Wed 08:06:00 AM 8.5100 -90.7219 150° Southeast  Level FlightAware Approximate
Wed 08:07:00 AM 8.3981 -90.6559 150° Southeast  Level FlightAware Approximate
Wed 08:08:00 AM 8.2862 -90.5899 150° Southeast  Level FlightAware Approximate
Wed 08:09:00 AM 8.1742 -90.5239 150° Southeast  Level FlightAware Approximate
Wed 08:10:00 AM 8.0623 -90.4580 150° Southeast  Level FlightAware Approximate
Wed 08:11:00 AM 7.9503 -90.3921 150° Southeast  Level FlightAware Approximate
Wed 08:12:00 AM 7.8384 -90.3263 150° Southeast  Level FlightAware Approximate
Wed 08:13:00 AM 7.7264 -90.2605 150° Southeast  Level FlightAware Approximate
Wed 08:14:00 AM 7.6144 -90.1947 150° Southeast  Level FlightAware Approximate
Wed 08:15:00 AM 7.5029 -90.1236 146° Southeast  Level FlightAware Approximate
Wed 08:16:00 AM 7.3952 -90.0509 146° Southeast  Level FlightAware Approximate
Wed 08:17:00 AM 7.2875 -89.9783 146° Southeast  Level FlightAware Approximate
Wed 08:18:00 AM 7.1797 -89.9056 146° Southeast  Level FlightAware Approximate
Wed 08:19:00 AM 7.0720 -89.8331 146° Southeast  Level FlightAware Approximate
Wed 08:20:00 AM 6.9643 -89.7605 146° Southeast  Level FlightAware Approximate
Wed 08:21:00 AM 6.8565 -89.6880 146° Southeast  Level FlightAware Approximate
Wed 08:22:00 AM 6.7487 -89.6156 146° Southeast  Level FlightAware Approximate
Wed 08:23:00 AM 6.6408 -89.5434 146° Southeast  Level FlightAware Approximate
Wed 08:24:00 AM 6.5329 -89.4712 146° Southeast  Level FlightAware Approximate
Wed 08:25:00 AM 6.4250 -89.3989 146° Southeast  Level FlightAware Approximate
Wed 08:26:00 AM 6.3171 -89.3268 146° Southeast  Level FlightAware Approximate
Wed 08:27:00 AM 6.2092 -89.2546 146° Southeast  Level FlightAware Approximate
Wed 08:28:00 AM 6.1012 -89.1825 146° Southeast  Level FlightAware Approximate
Wed 08:29:00 AM 5.9933 -89.1105 146° Southeast  Level FlightAware Approximate
Wed 08:30:00 AM 5.8853 -89.0384 146° Southeast  Level FlightAware Approximate
Wed 08:31:00 AM 5.7774 -88.9664 146° Southeast  Level FlightAware Approximate
Wed 08:32:00 AM 5.6694 -88.8944 146° Southeast  Level FlightAware Approximate
Wed 08:33:00 AM 5.5614 -88.8224 146° Southeast  Level FlightAware Approximate
Wed 08:34:00 AM 5.4534 -88.7505 146° Southeast  Level FlightAware Approximate
Wed 08:35:00 AM 5.3454 -88.6786 146° Southeast  Level FlightAware Approximate
Wed 08:36:00 AM 5.2374 -88.6067 146° Southeast  Level FlightAware Approximate
Wed 08:37:00 AM 5.1294 -88.5348 146° Southeast  Level FlightAware Approximate
Wed 08:38:00 AM 5.0213 -88.4630 146° Southeast  Level FlightAware Approximate
Wed 08:39:00 AM 4.9133 -88.3912 146° Southeast  Level FlightAware Approximate
Wed 08:40:00 AM 4.8053 -88.3194 146° Southeast  Level FlightAware Approximate
Wed 08:41:00 AM 4.6972 -88.2476 146° Southeast  Level FlightAware Approximate
Wed 08:42:00 AM 4.5892 -88.1758 146° Southeast  Level FlightAware Approximate
Wed 08:43:00 AM 4.4811 -88.1041 147° Southeast  Level FlightAware Approximate
Wed 08:44:00 AM 4.3729 -88.0326 147° Southeast  Level FlightAware Approximate
Wed 08:45:00 AM 4.2648 -87.9610 147° Southeast  Level FlightAware Approximate
Wed 08:46:00 AM 4.1566 -87.8894 147° Southeast  Level FlightAware Approximate
Wed 08:47:00 AM 4.0484 -87.8179 147° Southeast  Level FlightAware Approximate
Wed 08:48:00 AM 3.9403 -87.7464 147° Southeast  Level FlightAware Approximate
Wed 08:49:00 AM 3.8321 -87.6749 147° Southeast  Level FlightAware Approximate
Wed 08:50:00 AM 3.7239 -87.6034 147° Southeast  Level FlightAware Approximate
Wed 08:51:00 AM 3.6157 -87.5320 147° Southeast  Level FlightAware Approximate
Wed 08:52:00 AM 3.5075 -87.4605 147° Southeast  Level FlightAware Approximate
Wed 08:53:00 AM 3.3993 -87.3891 147° Southeast  Level FlightAware Approximate
Wed 08:54:00 AM 3.2911 -87.3177 147° Southeast  Level FlightAware Approximate
Wed 08:55:00 AM 3.1829 -87.2463 147° Southeast  Level FlightAware Approximate
Wed 08:56:00 AM 3.0747 -87.1750 147° Southeast  Level FlightAware Approximate
Wed 08:57:00 AM 2.9664 -87.1036 147° Southeast  Level FlightAware Approximate
Wed 08:58:00 AM 2.8582 -87.0323 147° Southeast  Level FlightAware Approximate
Wed 08:59:00 AM 2.7500 -86.9609 147° Southeast  Level FlightAware Approximate
Wed 09:00:00 AM 2.6417 -86.8896 147° Southeast  Level FlightAware Approximate
Wed 09:01:00 AM 2.5335 -86.8183 147° Southeast  Level FlightAware Approximate
Wed 09:02:00 AM 2.4252 -86.7470 147° Southeast  Level FlightAware Approximate
Wed 09:03:00 AM 2.3170 -86.6757 147° Southeast  Level FlightAware Approximate
Wed 09:04:00 AM 2.2087 -86.6045 147° Southeast  Level FlightAware Approximate
Wed 09:05:00 AM 2.1005 -86.5332 147° Southeast  Level FlightAware Approximate
Wed 09:06:00 AM 1.9922 -86.4620 147° Southeast  Level FlightAware Approximate
Wed 09:07:00 AM 1.8840 -86.3907 147° Southeast  Level FlightAware Approximate
Wed 09:08:00 AM 1.7757 -86.3195 147° Southeast  Level FlightAware Approximate
Wed 09:09:00 AM 1.6674 -86.2483 147° Southeast  Level FlightAware Approximate
Wed 09:10:00 AM 1.5591 -86.1770 147° Southeast  Level FlightAware Approximate
Wed 09:11:00 AM 1.4509 -86.1058 147° Southeast  Level FlightAware Approximate
Wed 09:12:00 AM 1.3427 -86.0346 147° Southeast  Level FlightAware Approximate
Wed 09:13:00 AM 1.2344 -85.9633 147° Southeast  Level FlightAware Approximate
Wed 09:14:00 AM 1.1262 -85.8920 147° Southeast  Level FlightAware Approximate
Wed 09:15:00 AM 1.0180 -85.8207 147° Southeast  Level FlightAware Approximate
Wed 09:16:00 AM 0.9098 -85.7494 147° Southeast  Level FlightAware Approximate
Wed 09:17:00 AM 0.8016 -85.6781 147° Southeast  Level FlightAware Approximate
Wed 09:18:00 AM 0.6934 -85.6068 147° Southeast  Level FlightAware Approximate
Wed 09:19:00 AM 0.5852 -85.5356 147° Southeast  Level FlightAware Approximate
Wed 09:20:00 AM 0.4769 -85.4643 147° Southeast  Level FlightAware Approximate
Wed 09:21:00 AM 0.3687 -85.3930 147° Southeast  Level FlightAware Approximate
Wed 09:22:00 AM 0.2605 -85.3218 147° Southeast  Level FlightAware Approximate
Wed 09:23:00 AM 0.1523 -85.2505 147° Southeast  Level FlightAware Approximate
Wed 09:24:00 AM 0.0441 -85.1792 147° Southeast  Level FlightAware Approximate
Wed 09:25:00 AM -0.0642 -85.1080 147° Southeast  Level FlightAware Approximate
Wed 09:26:00 AM -0.1724 -85.0367 147° Southeast  Level FlightAware Approximate
Wed 09:27:00 AM -0.2806 -84.9654 147° Southeast  Level FlightAware Approximate
Wed 09:28:00 AM -0.3888 -84.8942 147° Southeast  Level FlightAware Approximate
Wed 09:29:00 AM -0.4970 -84.8229 147° Southeast  Level FlightAware Approximate
Wed 09:30:00 AM -0.6053 -84.7516 147° Southeast  Level FlightAware Approximate
Wed 09:31:00 AM -0.7135 -84.6804 147° Southeast  Level FlightAware Approximate
Wed 09:32:00 AM -0.8217 -84.6091 147° Southeast  Level FlightAware Approximate
Wed 09:33:00 AM -0.9299 -84.5378 147° Southeast  Level FlightAware Approximate
Wed 09:34:00 AM -1.0381 -84.4665 147° Southeast  Level FlightAware Approximate
Wed 09:35:00 AM -1.1464 -84.3952 147° Southeast  Level FlightAware Approximate
Wed 09:36:00 AM -1.2546 -84.3239 147° Southeast  Level FlightAware Approximate
Wed 09:37:00 AM -1.3628 -84.2526 147° Southeast  Level FlightAware Approximate
Wed 09:38:00 AM -1.4710 -84.1813 147° Southeast  Level FlightAware Approximate
Wed 09:39:00 AM -1.5792 -84.1100 147° Southeast  Level FlightAware Approximate
Wed 09:40:00 AM -1.6874 -84.0387 147° Southeast  Level FlightAware Approximate
Wed 09:41:00 AM -1.7956 -83.9673 147° Southeast  Level FlightAware Approximate
Wed 09:42:00 AM -1.9038 -83.8960 147° Southeast  Level FlightAware Approximate
Wed 09:43:00 AM -2.0120 -83.8247 147° Southeast  Level FlightAware Approximate
Wed 09:44:00 AM -2.1202 -83.7533 147° Southeast  Level FlightAware Approximate
Wed 09:45:00 AM -2.2284 -83.6819 147° Southeast  Level FlightAware Approximate
Wed 09:46:00 AM -2.3365 -83.6105 147° Southeast  Level FlightAware Approximate
Wed 09:47:00 AM -2.4447 -83.5392 147° Southeast  Level FlightAware Approximate
Wed 09:48:00 AM -2.5529 -83.4678 147° Southeast  Level FlightAware Approximate
Wed 09:49:00 AM -2.6611 -83.3963 147° Southeast  Level FlightAware Approximate
Wed 09:50:00 AM -2.7692 -83.3249 147° Southeast  Level FlightAware Approximate
Wed 09:51:00 AM -2.8774 -83.2535 147° Southeast  Level FlightAware Approximate
Wed 09:52:00 AM -2.9856 -83.1820 147° Southeast  Level FlightAware Approximate
Wed 09:53:00 AM -3.0937 -83.1106 147° Southeast  Level FlightAware Approximate
Wed 09:54:00 AM -3.2019 -83.0391 147° Southeast  Level FlightAware Approximate
Wed 09:55:00 AM -3.3100 -82.9676 147° Southeast  Level FlightAware Approximate
Wed 09:56:00 AM -3.4182 -82.8961 147° Southeast  Level FlightAware Approximate
Wed 09:57:00 AM -3.5263 -82.8246 147° Southeast  Level FlightAware Approximate
Wed 09:58:00 AM -3.6344 -82.7530 147° Southeast  Level FlightAware Approximate
Wed 09:59:00 AM -3.7425 -82.6815 147° Southeast  Level FlightAware Approximate
Wed 10:00:00 AM -3.8507 -82.6099 147° Southeast  Level FlightAware Approximate
Wed 10:01:00 AM -3.9588 -82.5383 147° Southeast  Level FlightAware Approximate
Wed 10:02:00 AM -4.0669 -82.4667 147° Southeast  Level FlightAware Approximate
Wed 10:03:00 AM -4.1750 -82.3951 147° Southeast  Level FlightAware Approximate
Wed 10:04:00 AM -4.2831 -82.3234 147° Southeast  Level FlightAware Approximate
Wed 10:05:00 AM -4.3912 -82.2517 147° Southeast  Level FlightAware Approximate
Wed 10:06:00 AM -4.4992 -82.1800 147° Southeast  Level FlightAware Approximate
Wed 10:07:00 AM -4.6073 -82.1083 147° Southeast  Level FlightAware Approximate
Wed 10:08:00 AM -4.7154 -82.0366 147° Southeast  Level FlightAware Approximate
Wed 10:09:00 AM -4.8235 -81.9648 147° Southeast  Level FlightAware Approximate
Wed 10:10:00 AM -4.9315 -81.8930 147° Southeast  Level FlightAware Approximate
Wed 10:11:00 AM -5.0395 -81.8212 146° Southeast  Level FlightAware Approximate
Wed 10:12:00 AM -5.1476 -81.7494 146° Southeast  Level FlightAware Approximate
Wed 10:13:00 AM -5.2556 -81.6776 146° Southeast  Level FlightAware Approximate
Wed 10:14:00 AM -5.3636 -81.6057 146° Southeast  Level FlightAware Approximate
Wed 10:15:00 AM -5.4716 -81.5338 146° Southeast  Level FlightAware Approximate
Wed 10:16:00 AM -5.5796 -81.4618 146° Southeast  Level FlightAware Approximate
Wed 10:17:00 AM -5.6876 -81.3899 146° Southeast  Level FlightAware Approximate
Wed 10:18:00 AM -5.7956 -81.3179 146° Southeast  Level FlightAware Approximate
Wed 10:19:00 AM -5.9036 -81.2459 146° Southeast  Level FlightAware Approximate
Wed 10:20:00 AM -6.0115 -81.1738 146° Southeast  Level FlightAware Approximate
Wed 10:21:00 AM -6.1195 -81.1018 146° Southeast  Level FlightAware Approximate
Wed 10:22:00 AM -6.2275 -81.0297 146° Southeast  Level FlightAware Approximate
Wed 10:23:00 AM -6.3354 -80.9575 146° Southeast  Level FlightAware Approximate
Wed 10:24:00 AM -6.4433 -80.8854 146° Southeast  Level FlightAware Approximate
Wed 10:25:00 AM -6.5512 -80.8132 146° Southeast  Level FlightAware Approximate
Wed 10:26:00 AM -6.6592 -80.7410 146° Southeast  Level FlightAware Approximate
Wed 10:27:00 AM -6.7671 -80.6687 146° Southeast  Level FlightAware Approximate
Wed 10:28:00 AM -6.8749 -80.5964 146° Southeast  Level FlightAware Approximate
Wed 10:29:00 AM -6.9828 -80.5241 146° Southeast  Level FlightAware Approximate
Wed 10:30:00 AM -7.0907 -80.4518 146° Southeast  Level FlightAware Approximate
Wed 10:31:00 AM -7.1985 -80.3794 146° Southeast  Level FlightAware Approximate
Wed 10:32:00 AM -7.3064 -80.3070 146° Southeast  Level FlightAware Approximate
Wed 10:33:00 AM -7.4142 -80.2345 146° Southeast  Level FlightAware Approximate
Wed 10:34:00 AM -7.5220 -80.1620 146° Southeast  Level FlightAware Approximate
Wed 10:35:00 AM -7.6298 -80.0895 146° Southeast  Level FlightAware Approximate
Wed 10:36:00 AM -7.7376 -80.0169 146° Southeast  Level FlightAware Approximate
Wed 10:37:00 AM -7.8454 -79.9443 146° Southeast  Level FlightAware Approximate
Wed 10:38:00 AM -7.9532 -79.8717 146° Southeast  Level FlightAware Approximate
Wed 10:39:00 AM -8.0609 -79.7990 146° Southeast  Level FlightAware Approximate
Wed 10:40:00 AM -8.1687 -79.7263 146° Southeast  Level FlightAware Approximate
Wed 10:41:00 AM -8.2764 -79.6536 146° Southeast  Level FlightAware Approximate
Wed 10:42:00 AM -8.3841 -79.5808 146° Southeast  Level FlightAware Approximate
Wed 10:43:00 AM -8.4918 -79.5079 146° Southeast  Level FlightAware Approximate
Wed 10:44:00 AM -8.5995 -79.4351 146° Southeast  Level FlightAware Approximate
Wed 10:45:00 AM -8.7072 -79.3622 146° Southeast  Level FlightAware Approximate
Wed 10:46:00 AM -8.8148 -79.2892 146° Southeast  Level FlightAware Approximate
Wed 10:47:00 AM -8.9225 -79.2162 146° Southeast  Level FlightAware Approximate
Wed 10:48:00 AM -9.0301 -79.1432 146° Southeast  Level FlightAware Approximate
Wed 10:49:00 AM -9.1377 -79.0701 146° Southeast  Level FlightAware Approximate
Wed 10:50:00 AM -9.2453 -78.9969 146° Southeast  Level FlightAware Approximate
Wed 10:51:00 AM -9.3529 -78.9238 146° Southeast  Level FlightAware Approximate
Wed 10:52:00 AM -9.4605 -78.8505 146° Southeast  Level FlightAware Approximate
Wed 10:53:00 AM -9.5681 -78.7773 146° Southeast  Level FlightAware Approximate
Wed 10:54:00 AM -9.6756 -78.7040 146° Southeast  Level FlightAware Approximate
Wed 10:55:00 AM -9.7831 -78.6306 146° Southeast  Level FlightAware Approximate
Wed 10:56:00 AM -9.8907 -78.5572 146° Southeast  Level FlightAware Approximate
Wed 10:57:00 AM -9.9982 -78.4837 146° Southeast  Level FlightAware Approximate
Wed 10:58:00 AM -10.1056 -78.4102 146° Southeast  Level FlightAware Approximate
Wed 10:59:00 AM -10.2131 -78.3367 146° Southeast  Level FlightAware Approximate
Wed 11:00:00 AM -10.3198 -78.2620 145° Southeast  Level FlightAware Approximate
Wed 11:01:00 AM -10.4276 -78.1890 148° Southeast  Level FlightAware Approximate
Wed 11:02:00 AM -10.5376 -78.1194 147° Southeast  Level FlightAware Approximate
Wed 11:03:00 AM -10.6448 -78.0453 145° Southeast  Level FlightAware Approximate
Wed 11:04:00 AM -10.7514 -77.9704 145° Southeast  Level FlightAware Approximate
Wed 11:05:00 AM -10.8578 -77.8951 148° Southeast  Level FlightAware Approximate
Wed 11:06:00 AM -10.9683 -77.8261 148° Southeast  Level FlightAware Approximate
Wed 11:07:00 AM -11.0750 -77.7512 145° Southeast  Level FlightAware Approximate
Wed 11:08:00 AM -11.1829 -77.6781 147° Southeast  Level FlightAware Approximate
Wed 11:09:00 AM -11.2913 -77.6058 147° Southeast  Level FlightAware Approximate
Wed 11:10:00 AM -11.3979 -77.5308 144° Southeast  Level FlightAware Approximate
Wed 11:11:00 AM -11.5033 -77.4540 148° Southeast  Level FlightAware Approximate
Wed 11:12:00 AM -11.6133 -77.3840 148° Southeast  Level FlightAware Approximate
Wed 11:13:00 AM -11.7167 -77.3055 147° Southeast  Level FlightAware Approximate
Wed 11:14:00 AM -11.8271 -77.2365 154° Southeast  Level FlightAware Approximate
Wed 11:15:00 AM -11.9279 -77.1541 144° Southeast  Level FlightAware Approximate
Wed 11:16:00 AM -12.0167 -77.1167 159° South  Level FlightAware Approximate
Wed 11:17:00 AM -12.0219 -77.1143 159° South  Level Estimated
Wed 11:18:00 AM -12.0167 -77.1167 159° South  Level FlightAware Approximate
Wed 11:19:00 AM -12.0219 -77.1143 159° South  Level Estimated
Wed 11:20:00 AM -12.0167 -77.1167 159° South  Level FlightAware Approximate
Wed 11:21:00 AM -12.0219 -77.1143 159° South  Level Estimated
Wed 11:22:00 AM -12.0167 -77.1167 159° South  Level FlightAware Approximate
Wed 11:23:00 AM -12.0219 -77.1143 159° South  Level Estimated
Wed 11:24:00 AM -12.0167 -77.1167 159° South  Level FlightAware Approximate
Wed 11:25:00 AM -12.0219 -77.1143 159° South  Level Estimated
Wed 11:26:00 AM -12.0167 -77.1167 159° South  Level FlightAware Approximate
Wed 11:27:00 AM -12.0219 -77.1143 159° South  Level Estimated
Wed 11:28:00 AM -12.0167 -77.1167 159° South  Level FlightAware Approximate
Wed 11:29:00 AM -12.0219 -77.1143 159° South  Level Estimated
Wed 11:30:00 AM -12.0167 -77.1167 159° South  Level FlightAware Approximate
Wed 11:31:00 AM -12.0219 -77.1143 159° South  Level Estimated
Wed 11:32:00 AM -12.0167 -77.1167 159° South  Level FlightAware Approximate
Wed 11:33:00 AM -12.0219 -77.1143 159° South  Level Estimated
Wed 11:34:00 AM -12.0167 -77.1167 159° South  Level FlightAware Approximate
Wed 11:35:00 AM -12.0219 -77.1143 159° South  Level Estimated
Wed 11:36:00 AM -12.0167 -77.1167 159° South  Level FlightAware Approximate
Wed 11:37:00 AM -12.0219 -77.1143 159° South  Level Estimated
Wed 11:38:00 AM -12.0167 -77.1167 159° South  Level FlightAware Approximate
Wed 11:39:00 AM -12.0219 -77.1143 159° South  Level Estimated
Wed 11:40:00 AM -12.0167 -77.1167 159° South  Level FlightAware Approximate
Wed 11:41:00 AM -12.0219 -77.1143 159° South  Level Estimated

Login

Don't have an account? Register now (free) for customized features, flight alerts, and more!